sensor_id;sensor_type;location;lat;lon;timestamp;pressure;altitude;pressure_sealevel;temperature;humidity
60089;BME280;45961;53.574;55.878;2022-09-09T00:00:26;99964.94;;;7.76;88.40
60089;BME280;45961;53.574;55.878;2022-09-09T00:03:02;99996.97;;;7.90;88.38
60089;BME280;45961;53.574;55.878;2022-09-09T00:04:26;99966.44;;;7.63;88.51
60089;BME280;45961;53.574;55.878;2022-09-09T00:05:33;99967.50;;;7.76;88.51
60089;BME280;45961;53.574;55.878;2022-09-09T00:07:25;99993.44;;;7.85;88.59
60089;BME280;45961;53.574;55.878;2022-09-09T00:08:32;99987.13;;;7.66;88.88
60089;BME280;45961;53.574;55.878;2022-09-09T00:09:47;99972.50;;;7.65;89.04
60089;BME280;45961;53.574;55.878;2022-09-09T00:10:58;99977.88;;;7.77;88.89
60089;BME280;45961;53.574;55.878;2022-09-09T00:12:02;99986.44;;;7.78;88.96
60089;BME280;45961;53.574;55.878;2022-09-09T00:17:36;99976.25;;;7.84;89.03
60089;BME280;45961;53.574;55.878;2022-09-09T00:21:33;99990.94;;;7.89;88.53
60089;BME280;45961;53.574;55.878;2022-09-09T00:22:36;99985.69;;;7.83;88.57
60089;BME280;45961;53.574;55.878;2022-09-09T00:24:00;99955.47;;;7.73;88.33
60089;BME280;45961;53.574;55.878;2022-09-09T00:25:12;99967.44;;;7.71;88.43
60089;BME280;45961;53.574;55.878;2022-09-09T00:27:47;99971.13;;;7.85;88.23
60089;BME280;45961;53.574;55.878;2022-09-09T00:29:57;99982.03;;;7.69;88.10
60089;BME280;45961;53.574;55.878;2022-09-09T00:31:13;99972.00;;;7.87;88.02
60089;BME280;45961;53.574;55.878;2022-09-09T00:32:19;99966.81;;;7.84;87.92
60089;BME280;45961;53.574;55.878;2022-09-09T00:33:23;99938.16;;;7.66;87.94
60089;BME280;45961;53.574;55.878;2022-09-09T00:34:26;99962.34;;;7.73;87.85
60089;BME280;45961;53.574;55.878;2022-09-09T00:35:41;99973.75;;;7.88;87.80
60089;BME280;45961;53.574;55.878;2022-09-09T00:36:44;99965.91;;;7.81;87.74
60089;BME280;45961;53.574;55.878;2022-09-09T00:37:47;99950.38;;;7.78;87.63
60089;BME280;45961;53.574;55.878;2022-09-09T00:38:52;99965.97;;;7.84;87.66
60089;BME280;45961;53.574;55.878;2022-09-09T00:39:59;99936.31;;;7.59;87.61
60089;BME280;45961;53.574;55.878;2022-09-09T00:42:15;99972.56;;;7.68;87.94
60089;BME280;45961;53.574;55.878;2022-09-09T00:43:32;99977.78;;;7.73;88.09
60089;BME280;45961;53.574;55.878;2022-09-09T00:44:34;99969.28;;;7.80;88.01
60089;BME280;45961;53.574;55.878;2022-09-09T00:46:05;99950.97;;;7.60;87.84
60089;BME280;45961;53.574;55.878;2022-09-09T00:48:58;99954.47;;;7.65;87.71
60089;BME280;45961;53.574;55.878;2022-09-09T00:50:05;99945.81;;;7.60;87.57
60089;BME280;45961;53.574;55.878;2022-09-09T00:51:42;99959.63;;;7.65;87.75
60089;BME280;45961;53.574;55.878;2022-09-09T00:54:56;99981.03;;;7.61;87.98
60089;BME280;45961;53.574;55.878;2022-09-09T00:56:14;99940.44;;;7.48;88.21
60089;BME280;45961;53.574;55.878;2022-09-09T00:57:26;99959.50;;;7.59;88.07
60089;BME280;45961;53.574;55.878;2022-09-09T00:58:32;99924.94;;;7.45;88.01
60089;BME280;45961;53.574;55.878;2022-09-09T00:59:46;99958.59;;;7.55;88.02
60089;BME280;45961;53.574;55.878;2022-09-09T01:00:57;99936.81;;;7.36;88.02
60089;BME280;45961;53.574;55.878;2022-09-09T01:02:02;99958.63;;;7.57;88.15
60089;BME280;45961;53.574;55.878;2022-09-09T01:04:29;99961.22;;;7.58;88.18
60089;BME280;45961;53.574;55.878;2022-09-09T01:06:10;99991.91;;;7.45;88.16
60089;BME280;45961;53.574;55.878;2022-09-09T01:07:18;99910.00;;;7.24;88.16
60089;BME280;45961;53.574;55.878;2022-09-09T01:09:55;99931.84;;;7.47;88.21
60089;BME280;45961;53.574;55.878;2022-09-09T01:10:58;99965.31;;;7.47;88.29
60089;BME280;45961;53.574;55.878;2022-09-09T01:12:38;99915.38;;;7.37;88.09
60089;BME280;45961;53.574;55.878;2022-09-09T01:14:14;99951.03;;;7.66;87.95
60089;BME280;45961;53.574;55.878;2022-09-09T01:16:44;99929.31;;;7.49;87.84
60089;BME280;45961;53.574;55.878;2022-09-09T01:18:17;99993.00;;;7.59;87.91
60089;BME280;45961;53.574;55.878;2022-09-09T01:22:08;99964.44;;;7.47;87.98
60089;BME280;45961;53.574;55.878;2022-09-09T01:27:48;99874.13;;;6.84;88.36
60089;BME280;45961;53.574;55.878;2022-09-09T01:29:32;99898.16;;;6.86;88.43
60089;BME280;45961;53.574;55.878;2022-09-09T01:30:40;99915.81;;;7.12;88.22
60089;BME280;45961;53.574;55.878;2022-09-09T01:32:58;99945.84;;;7.14;88.45
60089;BME280;45961;53.574;55.878;2022-09-09T01:34:14;99883.44;;;6.79;88.30
60089;BME280;45961;53.574;55.878;2022-09-09T01:38:01;99929.41;;;7.06;88.22
60089;BME280;45961;53.574;55.878;2022-09-09T01:39:05;99946.19;;;7.33;88.23
60089;BME280;45961;53.574;55.878;2022-09-09T01:40:07;99968.28;;;7.20;87.95
60089;BME280;45961;53.574;55.878;2022-09-09T01:41:13;99966.63;;;7.24;87.81
60089;BME280;45961;53.574;55.878;2022-09-09T01:42:55;99956.19;;;7.16;87.87
60089;BME280;45961;53.574;55.878;2022-09-09T01:44:00;99927.00;;;7.15;87.94
60089;BME280;45961;53.574;55.878;2022-09-09T01:45:10;99989.91;;;7.30;88.01
60089;BME280;45961;53.574;55.878;2022-09-09T01:46:16;99957.28;;;7.30;87.83
60089;BME280;45961;53.574;55.878;2022-09-09T01:47:19;99895.63;;;6.88;87.96
60089;BME280;45961;53.574;55.878;2022-09-09T01:48:46;99967.66;;;7.32;88.01
60089;BME280;45961;53.574;55.878;2022-09-09T01:49:47;99918.31;;;7.10;88.22
60089;BME280;45961;53.574;55.878;2022-09-09T01:50:55;99946.41;;;7.45;87.98
60089;BME280;45961;53.574;55.878;2022-09-09T01:51:57;99943.63;;;7.33;88.31
60089;BME280;45961;53.574;55.878;2022-09-09T01:53:11;99951.44;;;7.39;88.43
60089;BME280;45961;53.574;55.878;2022-09-09T01:54:14;99952.22;;;7.35;88.81
60089;BME280;45961;53.574;55.878;2022-09-09T01:55:15;99936.69;;;7.30;88.89
60089;BME280;45961;53.574;55.878;2022-09-09T01:57:32;99933.97;;;7.20;88.82
60089;BME280;45961;53.574;55.878;2022-09-09T02:00:10;99938.75;;;7.50;88.80
60089;BME280;45961;53.574;55.878;2022-09-09T02:05:36;99949.13;;;7.54;88.91
60089;BME280;45961;53.574;55.878;2022-09-09T02:06:40;99949.06;;;7.50;89.10
60089;BME280;45961;53.574;55.878;2022-09-09T02:08:08;99944.84;;;7.53;89.38
60089;BME280;45961;53.574;55.878;2022-09-09T02:09:40;99945.69;;;7.54;89.28
60089;BME280;45961;53.574;55.878;2022-09-09T02:11:29;99943.19;;;7.57;89.32
60089;BME280;45961;53.574;55.878;2022-09-09T02:12:55;99953.63;;;7.64;89.30
60089;BME280;45961;53.574;55.878;2022-09-09T02:14:22;99950.97;;;7.60;89.26
60089;BME280;45961;53.574;55.878;2022-09-09T02:16:48;99948.47;;;7.64;89.11
60089;BME280;45961;53.574;55.878;2022-09-09T02:17:55;99942.44;;;7.64;89.01
60089;BME280;45961;53.574;55.878;2022-09-09T02:19:14;99943.38;;;7.71;88.92
60089;BME280;45961;53.574;55.878;2022-09-09T02:20:32;99933.09;;;7.71;89.00
60089;BME280;45961;53.574;55.878;2022-09-09T02:21:35;99894.91;;;7.45;88.83
60089;BME280;45961;53.574;55.878;2022-09-09T02:22:39;99946.09;;;7.80;88.77
60089;BME280;45961;53.574;55.878;2022-09-09T02:23:42;99935.78;;;7.78;88.77
60089;BME280;45961;53.574;55.878;2022-09-09T02:24:47;99940.94;;;7.77;88.75
60089;BME280;45961;53.574;55.878;2022-09-09T02:25:57;99933.25;;;7.81;88.79
60089;BME280;45961;53.574;55.878;2022-09-09T02:27:01;99933.50;;;7.98;88.73
60089;BME280;45961;53.574;55.878;2022-09-09T02:28:06;99933.34;;;8.47;88.29
60089;BME280;45961;53.574;55.878;2022-09-09T02:29:22;99912.81;;;9.33;86.49
60089;BME280;45961;53.574;55.878;2022-09-09T02:30:28;99932.34;;;10.06;84.22
60089;BME280;45961;53.574;55.878;2022-09-09T02:31:34;99930.91;;;10.58;81.55
60089;BME280;45961;53.574;55.878;2022-09-09T02:32:41;99930.22;;;11.10;79.14
60089;BME280;45961;53.574;55.878;2022-09-09T02:33:52;99921.66;;;11.51;76.83
60089;BME280;45961;53.574;55.878;2022-09-09T02:35:02;99928.56;;;11.79;75.25
60089;BME280;45961;53.574;55.878;2022-09-09T02:36:05;99923.34;;;12.15;74.00
60089;BME280;45961;53.574;55.878;2022-09-09T02:37:11;99931.09;;;12.31;72.80
60089;BME280;45961;53.574;55.878;2022-09-09T02:38:16;99928.56;;;12.04;71.68
60089;BME280;45961;53.574;55.878;2022-09-09T02:39:29;99920.78;;;11.67;71.98
60089;BME280;45961;53.574;55.878;2022-09-09T02:40:30;99922.50;;;11.67;73.49
60089;BME280;45961;53.574;55.878;2022-09-09T02:41:39;99922.50;;;11.79;73.74
60089;BME280;45961;53.574;55.878;2022-09-09T02:42:41;99927.69;;;11.80;73.63
60089;BME280;45961;53.574;55.878;2022-09-09T02:43:44;99929.41;;;11.81;73.54
60089;BME280;45961;53.574;55.878;2022-09-09T02:44:48;99933.75;;;11.92;73.32
60089;BME280;45961;53.574;55.878;2022-09-09T02:47:39;99888.78;;;11.73;71.99
60089;BME280;45961;53.574;55.878;2022-09-09T02:49:09;99923.31;;;12.21;72.31
60089;BME280;45961;53.574;55.878;2022-09-09T02:50:22;99889.66;;;11.89;71.16
60089;BME280;45961;53.574;55.878;2022-09-09T02:51:35;99916.38;;;12.33;70.65
60089;BME280;45961;53.574;55.878;2022-09-09T02:55:37;99906.88;;;12.28;69.88
60089;BME280;45961;53.574;55.878;2022-09-09T02:56:46;99916.41;;;12.30;69.67
60089;BME280;45961;53.574;55.878;2022-09-09T02:57:49;99918.91;;;12.55;69.62
60089;BME280;45961;53.574;55.878;2022-09-09T02:58:52;99913.63;;;12.75;69.37
60089;BME280;45961;53.574;55.878;2022-09-09T02:59:58;99915.44;;;12.56;68.58
60089;BME280;45961;53.574;55.878;2022-09-09T03:00:59;99895.59;;;12.37;68.37
60089;BME280;45961;53.574;55.878;2022-09-09T03:02:06;99919.75;;;12.57;68.81
60089;BME280;45961;53.574;55.878;2022-09-09T03:03:09;99917.97;;;12.71;68.14
60089;BME280;45961;53.574;55.878;2022-09-09T03:04:11;99920.56;;;12.70;68.09
60089;BME280;45961;53.574;55.878;2022-09-09T03:05:13;99920.59;;;12.65;68.24
60089;BME280;45961;53.574;55.878;2022-09-09T03:06:14;99922.28;;;12.72;68.50
60089;BME280;45961;53.574;55.878;2022-09-09T03:07:19;99918.81;;;12.79;68.49
60089;BME280;45961;53.574;55.878;2022-09-09T03:08:22;99915.41;;;12.65;68.08
60089;BME280;45961;53.574;55.878;2022-09-09T03:09:23;99922.31;;;12.65;68.32
60089;BME280;45961;53.574;55.878;2022-09-09T03:10:24;99917.97;;;12.68;68.64
60089;BME280;45961;53.574;55.878;2022-09-09T03:11:26;99917.97;;;12.68;68.58
60089;BME280;45961;53.574;55.878;2022-09-09T03:12:28;99896.38;;;12.54;67.73
60089;BME280;45961;53.574;55.878;2022-09-09T03:13:29;99913.56;;;12.85;68.28
60089;BME280;45961;53.574;55.878;2022-09-09T03:14:30;99929.13;;;12.89;67.64
60089;BME280;45961;53.574;55.878;2022-09-09T03:15:32;99923.00;;;13.02;67.65
60089;BME280;45961;53.574;55.878;2022-09-09T03:16:34;99909.19;;;12.97;67.41
60089;BME280;45961;53.574;55.878;2022-09-09T03:17:35;99909.09;;;13.09;67.18
60089;BME280;45961;53.574;55.878;2022-09-09T03:18:37;99901.41;;;12.95;66.57
60089;BME280;45961;53.574;55.878;2022-09-09T03:19:38;99923.91;;;12.99;66.76
60089;BME280;45961;53.574;55.878;2022-09-09T03:20:42;99904.91;;;12.85;66.95
60089;BME280;45961;53.574;55.878;2022-09-09T03:21:45;99916.13;;;12.96;67.48
60089;BME280;45961;53.574;55.878;2022-09-09T03:22:47;99893.50;;;13.09;67.06
60089;BME280;45961;53.574;55.878;2022-09-09T03:23:49;99915.13;;;13.17;66.76
60089;BME280;45961;53.574;55.878;2022-09-09T03:24:50;99905.66;;;13.02;66.97
60089;BME280;45961;53.574;55.878;2022-09-09T03:25:52;99904.00;;;12.94;67.58
60089;BME280;45961;53.574;55.878;2022-09-09T03:27:02;99914.28;;;13.12;67.62
60089;BME280;45961;53.574;55.878;2022-09-09T03:28:03;99899.56;;;13.11;67.30
60089;BME280;45961;53.574;55.878;2022-09-09T03:29:05;99914.22;;;13.26;67.32
60089;BME280;45961;53.574;55.878;2022-09-09T03:30:08;99893.44;;;13.27;67.15
60089;BME280;45961;53.574;55.878;2022-09-09T03:31:09;99877.91;;;13.12;67.27
60089;BME280;45961;53.574;55.878;2022-09-09T03:32:13;99920.25;;;13.32;67.13
60089;BME280;45961;53.574;55.878;2022-09-09T03:33:17;99870.09;;;13.14;66.02
60089;BME280;45961;53.574;55.878;2022-09-09T03:34:20;99910.78;;;13.16;65.14
60089;BME280;45961;53.574;55.878;2022-09-09T03:35:21;99889.13;;;13.20;65.43
60089;BME280;45961;53.574;55.878;2022-09-09T03:36:22;99914.22;;;13.29;65.78
60089;BME280;45961;53.574;55.878;2022-09-09T03:37:24;99878.75;;;13.16;65.89
60089;BME280;45961;53.574;55.878;2022-09-09T03:38:27;99896.88;;;13.29;66.26
60089;BME280;45961;53.574;55.878;2022-09-09T03:39:29;99872.63;;;13.26;65.72
60089;BME280;45961;53.574;55.878;2022-09-09T03:40:30;99875.25;;;13.24;65.62
60089;BME280;45961;53.574;55.878;2022-09-09T03:41:32;99862.81;;;13.58;65.22
60089;BME280;45961;53.574;55.878;2022-09-09T03:42:37;99892.22;;;13.70;65.21
60089;BME280;45961;53.574;55.878;2022-09-09T03:43:38;99880.00;;;13.78;64.72
60089;BME280;45961;53.574;55.878;2022-09-09T03:44:40;99891.06;;;14.00;64.68
60089;BME280;45961;53.574;55.878;2022-09-09T03:45:48;99878.94;;;13.97;64.41
60089;BME280;45961;53.574;55.878;2022-09-09T03:46:50;99873.56;;;14.14;63.50
60089;BME280;45961;53.574;55.878;2022-09-09T03:47:51;99874.34;;;14.21;63.47
60089;BME280;45961;53.574;55.878;2022-09-09T03:48:52;99879.72;;;14.07;63.84
60089;BME280;45961;53.574;55.878;2022-09-09T03:49:53;99890.88;;;14.17;63.16
60089;BME280;45961;53.574;55.878;2022-09-09T03:50:55;99889.13;;;14.20;62.87
60089;BME280;45961;53.574;55.878;2022-09-09T03:51:59;99883.97;;;14.14;62.94
60089;BME280;45961;53.574;55.878;2022-09-09T03:53:01;99877.19;;;14.01;63.47
60089;BME280;45961;53.574;55.878;2022-09-09T03:54:02;99885.50;;;14.30;63.39
60089;BME280;45961;53.574;55.878;2022-09-09T03:55:07;99881.91;;;14.42;62.78
60089;BME280;45961;53.574;55.878;2022-09-09T03:56:08;99880.84;;;14.62;62.62
60089;BME280;45961;53.574;55.878;2022-09-09T03:57:10;99888.50;;;14.74;62.77
60089;BME280;45961;53.574;55.878;2022-09-09T03:58:13;99887.97;;;14.44;62.44
60089;BME280;45961;53.574;55.878;2022-09-09T03:59:14;99887.41;;;14.18;63.14
60089;BME280;45961;53.574;55.878;2022-09-09T04:00:16;99886.25;;;14.42;62.36
60089;BME280;45961;53.574;55.878;2022-09-09T04:01:18;99888.97;;;14.32;61.94
60089;BME280;45961;53.574;55.878;2022-09-09T04:02:19;99887.72;;;13.86;62.20
60089;BME280;45961;53.574;55.878;2022-09-09T04:03:22;99887.00;;;13.70;63.34
60089;BME280;45961;53.574;55.878;2022-09-09T04:04:28;99888.06;;;13.49;63.48
60089;BME280;45961;53.574;55.878;2022-09-09T04:05:29;99897.78;;;13.27;63.78
60089;BME280;45961;53.574;55.878;2022-09-09T04:06:30;99900.41;;;13.16;64.36
60089;BME280;45961;53.574;55.878;2022-09-09T04:07:31;99896.97;;;13.13;64.43
60089;BME280;45961;53.574;55.878;2022-09-09T04:08:33;99900.41;;;13.13;65.15
60089;BME280;45961;53.574;55.878;2022-09-09T04:09:35;99902.25;;;12.99;65.60
60089;BME280;45961;53.574;55.878;2022-09-09T04:10:36;99894.47;;;12.99;65.43
60089;BME280;45961;53.574;55.878;2022-09-09T04:11:38;99897.06;;;12.93;66.04
60089;BME280;45961;53.574;55.878;2022-09-09T04:12:39;99897.94;;;12.96;65.75
60089;BME280;45961;53.574;55.878;2022-09-09T04:13:41;99896.03;;;13.18;65.65
60089;BME280;45961;53.574;55.878;2022-09-09T04:14:44;99891.59;;;13.39;65.29
60089;BME280;45961;53.574;55.878;2022-09-09T04:15:53;99898.22;;;13.76;65.00
60089;BME280;45961;53.574;55.878;2022-09-09T04:16:55;99892.97;;;13.81;64.43
60089;BME280;45961;53.574;55.878;2022-09-09T04:17:58;99880.59;;;14.04;63.83
60089;BME280;45961;53.574;55.878;2022-09-09T04:18:59;99887.94;;;14.49;63.20
60089;BME280;45961;53.574;55.878;2022-09-09T04:20:01;99896.44;;;14.63;62.31
60089;BME280;45961;53.574;55.878;2022-09-09T04:21:02;99902.34;;;14.77;62.02
60089;BME280;45961;53.574;55.878;2022-09-09T04:22:08;99904.91;;;14.80;62.25
60089;BME280;45961;53.574;55.878;2022-09-09T04:23:10;99905.56;;;14.95;62.47
60089;BME280;45961;53.574;55.878;2022-09-09T04:24:11;99884.78;;;14.92;62.08
60089;BME280;45961;53.574;55.878;2022-09-09T04:25:12;99902.00;;;15.02;62.38
60089;BME280;45961;53.574;55.878;2022-09-09T04:26:13;99907.31;;;14.96;62.14
60089;BME280;45961;53.574;55.878;2022-09-09T04:27:14;99908.03;;;15.05;62.32
60089;BME280;45961;53.574;55.878;2022-09-09T04:28:17;99905.84;;;14.75;62.99
60089;BME280;45961;53.574;55.878;2022-09-09T04:29:18;99909.44;;;14.68;63.43
60089;BME280;45961;53.574;55.878;2022-09-09T04:30:19;99917.50;;;14.42;63.29
60089;BME280;45961;53.574;55.878;2022-09-09T04:31:21;99916.72;;;14.33;63.52
60089;BME280;45961;53.574;55.878;2022-09-09T04:32:26;99906.44;;;14.21;64.42
60089;BME280;45961;53.574;55.878;2022-09-09T04:33:27;99904.66;;;14.28;65.28
60089;BME280;45961;53.574;55.878;2022-09-09T04:34:28;99910.75;;;14.25;64.35
60089;BME280;45961;53.574;55.878;2022-09-09T04:35:31;99913.47;;;14.16;63.94
60089;BME280;45961;53.574;55.878;2022-09-09T04:36:32;99917.88;;;14.08;64.38
60089;BME280;45961;53.574;55.878;2022-09-09T04:37:36;99907.56;;;13.97;65.21
60089;BME280;45961;53.574;55.878;2022-09-09T04:38:38;99911.84;;;14.04;65.87
60089;BME280;45961;53.574;55.878;2022-09-09T04:39:39;99917.03;;;14.03;65.67
60089;BME280;45961;53.574;55.878;2022-09-09T04:40:46;99922.22;;;14.07;65.34
60089;BME280;45961;53.574;55.878;2022-09-09T04:41:48;99920.41;;;14.14;65.32
60089;BME280;45961;53.574;55.878;2022-09-09T04:42:49;99903.03;;;14.16;64.50
60089;BME280;45961;53.574;55.878;2022-09-09T04:43:51;99910.69;;;14.30;64.59
60089;BME280;45961;53.574;55.878;2022-09-09T04:44:55;99917.66;;;14.29;63.55
60089;BME280;45961;53.574;55.878;2022-09-09T04:45:57;99915.75;;;14.44;64.08
60089;BME280;45961;53.574;55.878;2022-09-09T04:46:59;99919.88;;;14.63;63.35
60089;BME280;45961;53.574;55.878;2022-09-09T04:48:01;99929.25;;;14.78;62.78
60089;BME280;45961;53.574;55.878;2022-09-09T04:49:03;99890.09;;;14.82;62.44
60089;BME280;45961;53.574;55.878;2022-09-09T04:50:07;99892.34;;;15.07;62.66
60089;BME280;45961;53.574;55.878;2022-09-09T04:51:11;99903.59;;;15.11;62.35
60089;BME280;45961;53.574;55.878;2022-09-09T04:52:12;99901.91;;;15.10;61.77
60089;BME280;45961;53.574;55.878;2022-09-09T04:53:13;99915.72;;;15.15;61.39
60089;BME280;45961;53.574;55.878;2022-09-09T04:54:14;99916.72;;;15.08;60.16
60089;BME280;45961;53.574;55.878;2022-09-09T04:55:18;99914.56;;;14.72;60.20
60089;BME280;45961;53.574;55.878;2022-09-09T04:56:19;99916.19;;;14.81;60.93
60089;BME280;45961;53.574;55.878;2022-09-09T04:57:29;99912.88;;;14.68;61.44
60089;BME280;45961;53.574;55.878;2022-09-09T04:58:32;99918.00;;;14.76;61.61
60089;BME280;45961;53.574;55.878;2022-09-09T04:59:33;99897.31;;;14.62;62.08
60089;BME280;45961;53.574;55.878;2022-09-09T05:00:37;99915.22;;;14.88;62.20
60089;BME280;45961;53.574;55.878;2022-09-09T05:01:40;99919.75;;;14.75;62.59
60089;BME280;45961;53.574;55.878;2022-09-09T05:02:42;99925.91;;;14.68;61.74
60089;BME280;45961;53.574;55.878;2022-09-09T05:03:43;99919.09;;;14.60;61.73
60089;BME280;45961;53.574;55.878;2022-09-09T05:04:47;99921.63;;;14.64;61.38
60089;BME280;45961;53.574;55.878;2022-09-09T05:05:50;99928.66;;;14.56;61.49
60089;BME280;45961;53.574;55.878;2022-09-09T05:06:51;99925.16;;;14.59;60.85
60089;BME280;45961;53.574;55.878;2022-09-09T05:07:52;99908.88;;;14.38;61.20
60089;BME280;45961;53.574;55.878;2022-09-09T05:08:53;99906.41;;;14.27;60.61
60089;BME280;45961;53.574;55.878;2022-09-09T05:09:58;99922.66;;;14.46;60.63
60089;BME280;45961;53.574;55.878;2022-09-09T05:11:00;99913.34;;;14.25;61.17
60089;BME280;45961;53.574;55.878;2022-09-09T05:12:01;99926.38;;;14.25;60.98
60089;BME280;45961;53.574;55.878;2022-09-09T05:13:07;99918.66;;;14.16;61.08
60089;BME280;45961;53.574;55.878;2022-09-09T05:14:08;99922.94;;;14.19;61.66
60089;BME280;45961;53.574;55.878;2022-09-09T05:15:10;99930.03;;;14.07;61.69
60089;BME280;45961;53.574;55.878;2022-09-09T05:16:13;99894.94;;;13.59;62.77
60089;BME280;45961;53.574;55.878;2022-09-09T05:17:14;99939.78;;;13.82;63.18
60089;BME280;45961;53.574;55.878;2022-09-09T05:18:20;99931.34;;;13.56;63.80
60089;BME280;45961;53.574;55.878;2022-09-09T05:19:21;99923.53;;;13.54;64.23
60089;BME280;45961;53.574;55.878;2022-09-09T05:20:23;99944.41;;;13.48;64.49
60089;BME280;45961;53.574;55.878;2022-09-09T05:21:25;99919.31;;;13.43;64.99
60089;BME280;45961;53.574;55.878;2022-09-09T05:22:27;99915.94;;;13.22;65.71
60089;BME280;45961;53.574;55.878;2022-09-09T05:23:28;99910.75;;;13.25;65.59
60089;BME280;45961;53.574;55.878;2022-09-09T05:24:29;99916.84;;;13.18;65.85
60089;BME280;45961;53.574;55.878;2022-09-09T05:25:34;99931.63;;;13.12;66.02
60089;BME280;45961;53.574;55.878;2022-09-09T05:26:35;99903.03;;;13.08;67.09
60089;BME280;45961;53.574;55.878;2022-09-09T05:27:37;99882.44;;;12.82;66.49
60089;BME280;45961;53.574;55.878;2022-09-09T05:28:39;99904.03;;;12.91;67.88
60089;BME280;45961;53.574;55.878;2022-09-09T05:29:40;99920.47;;;12.91;68.60
60089;BME280;45961;53.574;55.878;2022-09-09T05:30:44;99918.75;;;12.89;69.05
60089;BME280;45961;53.574;55.878;2022-09-09T05:31:45;99919.59;;;12.95;69.83
60089;BME280;45961;53.574;55.878;2022-09-09T05:32:50;99907.44;;;12.97;69.45
60089;BME280;45961;53.574;55.878;2022-09-09T05:33:52;99914.44;;;12.88;69.90
60089;BME280;45961;53.574;55.878;2022-09-09T05:34:54;99919.59;;;12.92;69.84
60089;BME280;45961;53.574;55.878;2022-09-09T05:36:01;99918.75;;;12.89;70.74
60089;BME280;45961;53.574;55.878;2022-09-09T05:37:03;99916.13;;;12.95;70.64
60089;BME280;45961;53.574;55.878;2022-09-09T05:38:06;99934.28;;;12.99;71.16
60089;BME280;45961;53.574;55.878;2022-09-09T05:39:07;99920.44;;;12.97;71.36
60089;BME280;45961;53.574;55.878;2022-09-09T05:40:09;99917.00;;;12.95;71.44
60089;BME280;45961;53.574;55.878;2022-09-09T05:41:12;99921.34;;;12.95;71.90
60089;BME280;45961;53.574;55.878;2022-09-09T05:42:16;99913.53;;;12.95;72.08
60089;BME280;45961;53.574;55.878;2022-09-09T05:43:19;99917.84;;;12.97;72.63
60089;BME280;45961;53.574;55.878;2022-09-09T05:44:21;99915.28;;;12.91;73.07
60089;BME280;45961;53.574;55.878;2022-09-09T05:45:24;99913.53;;;12.95;72.89
60089;BME280;45961;53.574;55.878;2022-09-09T05:46:25;99893.72;;;12.78;72.28
60089;BME280;45961;53.574;55.878;2022-09-09T05:47:28;99912.63;;;13.00;71.57
60089;BME280;45961;53.574;55.878;2022-09-09T05:48:30;99917.72;;;13.14;71.67
60089;BME280;45961;53.574;55.878;2022-09-09T05:49:32;99917.72;;;13.17;70.56
60089;BME280;45961;53.574;55.878;2022-09-09T05:50:33;99924.63;;;13.24;69.77
60089;BME280;45961;53.574;55.878;2022-09-09T05:51:35;99918.47;;;13.39;69.64
60089;BME280;45961;53.574;55.878;2022-09-09T05:52:41;99907.28;;;13.26;70.25
60089;BME280;45961;53.574;55.878;2022-09-09T05:53:42;99917.63;;;13.36;69.85
60089;BME280;45961;53.574;55.878;2022-09-09T05:54:44;99925.28;;;13.55;69.43
60089;BME280;45961;53.574;55.878;2022-09-09T05:55:45;99913.97;;;13.61;69.20
60089;BME280;45961;53.574;55.878;2022-09-09T05:56:46;99916.59;;;13.60;69.05
60089;BME280;45961;53.574;55.878;2022-09-09T05:57:50;99899.28;;;13.55;68.82
60089;BME280;45961;53.574;55.878;2022-09-09T05:58:54;99921.72;;;13.67;67.58
60089;BME280;45961;53.574;55.878;2022-09-09T05:59:55;99920.00;;;13.65;67.23
60089;BME280;45961;53.574;55.878;2022-09-09T06:01:10;99916.53;;;13.67;67.53
60089;BME280;45961;53.574;55.878;2022-09-09T06:02:11;99914.81;;;13.62;68.17
60089;BME280;45961;53.574;55.878;2022-09-09T06:03:13;99910.47;;;13.62;68.01
60089;BME280;45961;53.574;55.878;2022-09-09T06:04:14;99917.34;;;13.69;67.60
60089;BME280;45961;53.574;55.878;2022-09-09T06:05:16;99917.44;;;13.63;67.94
60089;BME280;45961;53.574;55.878;2022-09-09T06:06:25;99918.19;;;13.76;67.74
60089;BME280;45961;53.574;55.878;2022-09-09T06:07:28;99917.16;;;13.92;68.22
60089;BME280;45961;53.574;55.878;2022-09-09T06:08:29;99912.81;;;13.93;68.03
60089;BME280;45961;53.574;55.878;2022-09-09T06:09:31;99904.22;;;13.85;67.03
60089;BME280;45961;53.574;55.878;2022-09-09T06:10:31;99911.88;;;13.98;66.44
60089;BME280;45961;53.574;55.878;2022-09-09T06:11:33;99905.69;;;14.12;66.18
60089;BME280;45961;53.574;55.878;2022-09-09T06:12:37;99917.72;;;14.23;65.48
60089;BME280;45961;53.574;55.878;2022-09-09T06:13:39;99903.91;;;14.17;65.71
60089;BME280;45961;53.574;55.878;2022-09-09T06:14:41;99910.72;;;14.27;65.40
60089;BME280;45961;53.574;55.878;2022-09-09T06:15:51;99915.06;;;14.28;65.11
60089;BME280;45961;53.574;55.878;2022-09-09T06:16:54;99913.28;;;14.33;65.05
60089;BME280;45961;53.574;55.878;2022-09-09T06:17:57;99913.31;;;14.28;65.20
60089;BME280;45961;53.574;55.878;2022-09-09T06:18:58;99908.09;;;14.31;65.02
60089;BME280;45961;53.574;55.878;2022-09-09T06:20:02;99914.13;;;14.33;66.02
60089;BME280;45961;53.574;55.878;2022-09-09T06:21:08;99908.00;;;14.38;65.23
60089;BME280;45961;53.574;55.878;2022-09-09T06:22:10;99907.13;;;14.39;64.95
60089;BME280;45961;53.574;55.878;2022-09-09T06:23:13;99907.03;;;14.48;64.65
60089;BME280;45961;53.574;55.878;2022-09-09T06:24:14;99909.66;;;14.45;64.13
60089;BME280;45961;53.574;55.878;2022-09-09T06:25:18;99917.41;;;14.51;64.05
60089;BME280;45961;53.574;55.878;2022-09-09T06:26:22;99914.97;;;14.36;62.72
60089;BME280;45961;53.574;55.878;2022-09-09T06:27:24;99912.25;;;14.48;63.26
60089;BME280;45961;53.574;55.878;2022-09-09T06:28:25;99915.66;;;14.54;62.76
60089;BME280;45961;53.574;55.878;2022-09-09T06:29:26;99912.13;;;14.60;62.81